sensor_id;sensor_type;location;lat;lon;timestamp;temperature;humidity
20827;DHT22;10574;52.508;13.236;2024-02-14T00:00:13;2.50;99.90
20827;DHT22;10574;52.508;13.236;2024-02-14T00:02:41;2.50;99.90
20827;DHT22;10574;52.508;13.236;2024-02-14T00:05:10;2.50;99.90
20827;DHT22;10574;52.508;13.236;2024-02-14T00:07:38;2.50;99.90
20827;DHT22;10574;52.508;13.236;2024-02-14T00:10:10;2.60;99.90
20827;DHT22;10574;52.508;13.236;2024-02-14T00:12:38;2.60;99.90
20827;DHT22;10574;52.508;13.236;2024-02-14T00:15:07;2.60;99.90
20827;DHT22;10574;52.508;13.236;2024-02-14T00:17:35;2.60;99.90
20827;DHT22;10574;52.508;13.236;2024-02-14T00:20:04;2.60;99.90
20827;DHT22;10574;52.508;13.236;2024-02-14T00:22:32;2.50;99.90
20827;DHT22;10574;52.508;13.236;2024-02-14T00:25:00;2.50;99.90
20827;DHT22;10574;52.508;13.236;2024-02-14T00:27:28;2.50;99.90
20827;DHT22;10574;52.508;13.236;2024-02-14T00:29:55;2.50;99.90
20827;DHT22;10574;52.508;13.236;2024-02-14T00:32:23;2.50;99.90
20827;DHT22;10574;52.508;13.236;2024-02-14T00:34:51;2.50;99.90
20827;DHT22;10574;52.508;13.236;2024-02-14T00:37:20;2.50;99.90
20827;DHT22;10574;52.508;13.236;2024-02-14T00:39:47;2.50;99.90
20827;DHT22;10574;52.508;13.236;2024-02-14T00:42:16;2.50;99.90
20827;DHT22;10574;52.508;13.236;2024-02-14T00:44:44;2.50;99.90
20827;DHT22;10574;52.508;13.236;2024-02-14T00:47:12;2.50;99.90
20827;DHT22;10574;52.508;13.236;2024-02-14T00:49:40;2.60;99.90
20827;DHT22;10574;52.508;13.236;2024-02-14T00:52:07;2.60;99.90
20827;DHT22;10574;52.508;13.236;2024-02-14T00:54:35;2.60;99.90
20827;DHT22;10574;52.508;13.236;2024-02-14T00:57:03;2.60;99.90
20827;DHT22;10574;52.508;13.236;2024-02-14T00:59:31;2.60;99.90
20827;DHT22;10574;52.508;13.236;2024-02-14T01:01:59;2.60;99.90
20827;DHT22;10574;52.508;13.236;2024-02-14T01:04:27;2.60;99.90
20827;DHT22;10574;52.508;13.236;2024-02-14T01:06:55;2.70;99.90
20827;DHT22;10574;52.508;13.236;2024-02-14T01:09:22;2.60;99.90
20827;DHT22;10574;52.508;13.236;2024-02-14T01:11:50;2.60;99.90
20827;DHT22;10574;52.508;13.236;2024-02-14T01:14:18;2.60;99.90
20827;DHT22;10574;52.508;13.236;2024-02-14T01:16:46;2.60;99.90
20827;DHT22;10574;52.508;13.236;2024-02-14T01:19:16;2.60;99.90
20827;DHT22;10574;52.508;13.236;2024-02-14T01:21:45;2.60;99.90
20827;DHT22;10574;52.508;13.236;2024-02-14T01:24:18;2.60;99.90
20827;DHT22;10574;52.508;13.236;2024-02-14T01:26:45;2.60;99.90
20827;DHT22;10574;52.508;13.236;2024-02-14T01:29:13;2.70;99.90
20827;DHT22;10574;52.508;13.236;2024-02-14T01:31:43;2.60;99.90
20827;DHT22;10574;52.508;13.236;2024-02-14T01:34:11;2.60;99.90
20827;DHT22;10574;52.508;13.236;2024-02-14T01:36:39;2.60;99.90
20827;DHT22;10574;52.508;13.236;2024-02-14T01:39:08;2.60;99.90
20827;DHT22;10574;52.508;13.236;2024-02-14T01:41:38;2.70;99.90
20827;DHT22;10574;52.508;13.236;2024-02-14T01:44:06;2.70;99.90
20827;DHT22;10574;52.508;13.236;2024-02-14T01:46:33;2.70;99.90
20827;DHT22;10574;52.508;13.236;2024-02-14T01:49:02;2.70;99.90
20827;DHT22;10574;52.508;13.236;2024-02-14T01:51:30;2.80;99.90
20827;DHT22;10574;52.508;13.236;2024-02-14T01:53:59;2.80;99.90
20827;DHT22;10574;52.508;13.236;2024-02-14T01:56:27;2.80;99.90
20827;DHT22;10574;52.508;13.236;2024-02-14T01:58:56;2.80;99.90
20827;DHT22;10574;52.508;13.236;2024-02-14T02:01:26;2.80;99.90
20827;DHT22;10574;52.508;13.236;2024-02-14T02:03:57;2.80;99.90
20827;DHT22;10574;52.508;13.236;2024-02-14T02:06:25;2.80;99.90
20827;DHT22;10574;52.508;13.236;2024-02-14T02:08:54;2.80;99.90
20827;DHT22;10574;52.508;13.236;2024-02-14T02:11:23;2.90;99.90
20827;DHT22;10574;52.508;13.236;2024-02-14T02:13:52;2.90;99.90
20827;DHT22;10574;52.508;13.236;2024-02-14T02:16:19;2.90;99.90
20827;DHT22;10574;52.508;13.236;2024-02-14T02:18:48;2.90;99.90
20827;DHT22;10574;52.508;13.236;2024-02-14T02:21:16;2.90;99.90
20827;DHT22;10574;52.508;13.236;2024-02-14T02:23:46;3.00;99.90
20827;DHT22;10574;52.508;13.236;2024-02-14T02:26:14;2.90;99.90
20827;DHT22;10574;52.508;13.236;2024-02-14T02:28:43;2.90;99.90
20827;DHT22;10574;52.508;13.236;2024-02-14T02:31:12;3.00;99.90
20827;DHT22;10574;52.508;13.236;2024-02-14T02:33:40;3.00;99.90
20827;DHT22;10574;52.508;13.236;2024-02-14T02:36:08;3.00;99.90
20827;DHT22;10574;52.508;13.236;2024-02-14T02:38:36;2.90;99.90
20827;DHT22;10574;52.508;13.236;2024-02-14T02:41:05;2.90;99.90
20827;DHT22;10574;52.508;13.236;2024-02-14T02:43:34;3.00;99.90
20827;DHT22;10574;52.508;13.236;2024-02-14T02:46:02;2.90;99.90
20827;DHT22;10574;52.508;13.236;2024-02-14T02:48:30;2.90;99.90
20827;DHT22;10574;52.508;13.236;2024-02-14T02:50:58;2.90;99.90
20827;DHT22;10574;52.508;13.236;2024-02-14T02:53:26;3.00;99.90
20827;DHT22;10574;52.508;13.236;2024-02-14T02:55:55;2.90;99.90
20827;DHT22;10574;52.508;13.236;2024-02-14T02:58:25;2.90;99.90
20827;DHT22;10574;52.508;13.236;2024-02-14T03:00:53;2.90;99.90
20827;DHT22;10574;52.508;13.236;2024-02-14T03:03:23;2.90;99.90
20827;DHT22;10574;52.508;13.236;2024-02-14T03:05:52;2.90;99.90
20827;DHT22;10574;52.508;13.236;2024-02-14T03:08:21;2.90;99.90
20827;DHT22;10574;52.508;13.236;2024-02-14T03:10:51;2.90;99.90
20827;DHT22;10574;52.508;13.236;2024-02-14T03:13:19;2.90;99.90
20827;DHT22;10574;52.508;13.236;2024-02-14T03:15:47;2.90;99.90
20827;DHT22;10574;52.508;13.236;2024-02-14T03:18:15;2.90;99.90
20827;DHT22;10574;52.508;13.236;2024-02-14T03:20:42;2.90;99.90
20827;DHT22;10574;52.508;13.236;2024-02-14T03:23:10;2.90;99.90
20827;DHT22;10574;52.508;13.236;2024-02-14T03:25:38;2.80;99.90
20827;DHT22;10574;52.508;13.236;2024-02-14T03:28:06;2.80;99.90
20827;DHT22;10574;52.508;13.236;2024-02-14T03:30:35;2.80;99.90
20827;DHT22;10574;52.508;13.236;2024-02-14T03:33:03;2.80;99.90
20827;DHT22;10574;52.508;13.236;2024-02-14T03:35:31;2.90;99.90
20827;DHT22;10574;52.508;13.236;2024-02-14T03:38:03;2.90;99.90
20827;DHT22;10574;52.508;13.236;2024-02-14T03:40:31;2.90;99.90
20827;DHT22;10574;52.508;13.236;2024-02-14T03:42:58;2.90;99.90
20827;DHT22;10574;52.508;13.236;2024-02-14T03:45:26;2.90;99.90
20827;DHT22;10574;52.508;13.236;2024-02-14T03:47:56;2.90;99.90
20827;DHT22;10574;52.508;13.236;2024-02-14T03:50:24;2.90;99.90
20827;DHT22;10574;52.508;13.236;2024-02-14T03:52:52;2.90;99.90
20827;DHT22;10574;52.508;13.236;2024-02-14T03:55:20;2.90;99.90
20827;DHT22;10574;52.508;13.236;2024-02-14T03:57:51;2.90;99.90
20827;DHT22;10574;52.508;13.236;2024-02-14T04:00:19;2.90;99.90
20827;DHT22;10574;52.508;13.236;2024-02-14T04:02:51;2.90;99.90
20827;DHT22;10574;52.508;13.236;2024-02-14T04:05:21;2.90;99.90
20827;DHT22;10574;52.508;13.236;2024-02-14T04:07:49;2.90;99.90
20827;DHT22;10574;52.508;13.236;2024-02-14T04:10:18;2.90;99.90
20827;DHT22;10574;52.508;13.236;2024-02-14T04:12:47;2.90;99.90
20827;DHT22;10574;52.508;13.236;2024-02-14T04:15:14;3.00;99.90
20827;DHT22;10574;52.508;13.236;2024-02-14T04:17:42;3.00;99.90
20827;DHT22;10574;52.508;13.236;2024-02-14T04:20:10;3.00;99.90
20827;DHT22;10574;52.508;13.236;2024-02-14T04:22:38;3.00;99.90
20827;DHT22;10574;52.508;13.236;2024-02-14T04:25:07;2.90;99.90
20827;DHT22;10574;52.508;13.236;2024-02-14T04:27:35;3.00;99.90
20827;DHT22;10574;52.508;13.236;2024-02-14T04:30:04;3.00;99.90
20827;DHT22;10574;52.508;13.236;2024-02-14T04:32:32;3.00;99.90
20827;DHT22;10574;52.508;13.236;2024-02-14T04:35:00;3.00;99.90
20827;DHT22;10574;52.508;13.236;2024-02-14T04:37:27;3.10;99.90
20827;DHT22;10574;52.508;13.236;2024-02-14T04:39:56;3.10;99.90
20827;DHT22;10574;52.508;13.236;2024-02-14T04:42:24;3.10;99.90
20827;DHT22;10574;52.508;13.236;2024-02-14T04:44:51;3.10;99.90
20827;DHT22;10574;52.508;13.236;2024-02-14T04:47:19;3.10;99.90
20827;DHT22;10574;52.508;13.236;2024-02-14T04:49:47;3.10;99.90
20827;DHT22;10574;52.508;13.236;2024-02-14T04:52:15;3.20;99.90
20827;DHT22;10574;52.508;13.236;2024-02-14T04:54:43;3.20;99.90
20827;DHT22;10574;52.508;13.236;2024-02-14T04:57:10;3.20;99.90
20827;DHT22;10574;52.508;13.236;2024-02-14T04:59:39;3.20;99.90
20827;DHT22;10574;52.508;13.236;2024-02-14T05:02:07;3.20;99.90
20827;DHT22;10574;52.508;13.236;2024-02-14T05:04:34;3.20;99.90
20827;DHT22;10574;52.508;13.236;2024-02-14T05:07:04;3.20;99.90
20827;DHT22;10574;52.508;13.236;2024-02-14T05:09:32;3.20;99.90
20827;DHT22;10574;52.508;13.236;2024-02-14T05:12:00;3.20;99.90
20827;DHT22;10574;52.508;13.236;2024-02-14T05:14:28;3.20;99.90
20827;DHT22;10574;52.508;13.236;2024-02-14T05:16:57;3.30;99.90
20827;DHT22;10574;52.508;13.236;2024-02-14T05:19:26;3.30;99.90
20827;DHT22;10574;52.508;13.236;2024-02-14T05:21:55;3.30;99.90
20827;DHT22;10574;52.508;13.236;2024-02-14T05:24:23;3.30;99.90
20827;DHT22;10574;52.508;13.236;2024-02-14T05:26:53;3.30;99.90
20827;DHT22;10574;52.508;13.236;2024-02-14T05:29:20;3.30;99.90
20827;DHT22;10574;52.508;13.236;2024-02-14T05:31:49;3.40;99.90
20827;DHT22;10574;52.508;13.236;2024-02-14T05:34:18;3.40;99.90
20827;DHT22;10574;52.508;13.236;2024-02-14T05:36:46;3.40;99.90
20827;DHT22;10574;52.508;13.236;2024-02-14T05:39:14;3.40;99.90
20827;DHT22;10574;52.508;13.236;2024-02-14T05:41:42;3.50;99.90
20827;DHT22;10574;52.508;13.236;2024-02-14T05:44:10;3.40;99.90
20827;DHT22;10574;52.508;13.236;2024-02-14T05:46:37;3.40;99.90
20827;DHT22;10574;52.508;13.236;2024-02-14T05:49:05;3.40;99.90
20827;DHT22;10574;52.508;13.236;2024-02-14T05:51:33;3.40;99.90
20827;DHT22;10574;52.508;13.236;2024-02-14T05:54:01;3.40;99.90
20827;DHT22;10574;52.508;13.236;2024-02-14T05:56:28;3.40;99.90
20827;DHT22;10574;52.508;13.236;2024-02-14T05:58:56;3.40;99.90
20827;DHT22;10574;52.508;13.236;2024-02-14T06:01:24;3.50;99.90
20827;DHT22;10574;52.508;13.236;2024-02-14T06:03:52;3.50;99.90
20827;DHT22;10574;52.508;13.236;2024-02-14T06:06:19;3.50;99.90
20827;DHT22;10574;52.508;13.236;2024-02-14T06:08:47;3.50;99.90
20827;DHT22;10574;52.508;13.236;2024-02-14T06:11:15;3.60;99.90
20827;DHT22;10574;52.508;13.236;2024-02-14T06:13:43;3.60;99.90
20827;DHT22;10574;52.508;13.236;2024-02-14T06:16:10;3.60;99.90
20827;DHT22;10574;52.508;13.236;2024-02-14T06:18:38;3.60;99.90
20827;DHT22;10574;52.508;13.236;2024-02-14T06:21:07;3.60;99.90
20827;DHT22;10574;52.508;13.236;2024-02-14T06:23:38;3.60;99.90
20827;DHT22;10574;52.508;13.236;2024-02-14T06:26:07;3.60;99.90
20827;DHT22;10574;52.508;13.236;2024-02-14T06:28:35;3.70;99.90
20827;DHT22;10574;52.508;13.236;2024-02-14T06:31:02;3.70;99.90
20827;DHT22;10574;52.508;13.236;2024-02-14T06:33:30;3.70;99.90
20827;DHT22;10574;52.508;13.236;2024-02-14T06:35:58;3.80;99.90
20827;DHT22;10574;52.508;13.236;2024-02-14T06:38:26;3.80;99.90
20827;DHT22;10574;52.508;13.236;2024-02-14T06:40:53;3.90;99.90
20827;DHT22;10574;52.508;13.236;2024-02-14T06:43:21;3.90;99.90
20827;DHT22;10574;52.508;13.236;2024-02-14T06:45:49;4.00;99.90
20827;DHT22;10574;52.508;13.236;2024-02-14T06:48:17;4.00;99.90
20827;DHT22;10574;52.508;13.236;2024-02-14T06:50:51;4.00;99.90
20827;DHT22;10574;52.508;13.236;2024-02-14T06:53:15;4.00;99.90
20827;DHT22;10574;52.508;13.236;2024-02-14T06:55:43;4.10;99.90
20827;DHT22;10574;52.508;13.236;2024-02-14T06:58:11;4.10;99.90
20827;DHT22;10574;52.508;13.236;2024-02-14T07:00:39;4.10;99.90
20827;DHT22;10574;52.508;13.236;2024-02-14T07:03:06;4.10;99.90
20827;DHT22;10574;52.508;13.236;2024-02-14T07:05:35;4.20;99.90
20827;DHT22;10574;52.508;13.236;2024-02-14T07:08:02;4.20;99.90
20827;DHT22;10574;52.508;13.236;2024-02-14T07:10:31;4.20;99.90
20827;DHT22;10574;52.508;13.236;2024-02-14T07:12:58;4.30;99.90
20827;DHT22;10574;52.508;13.236;2024-02-14T07:15:26;4.40;99.90
20827;DHT22;10574;52.508;13.236;2024-02-14T07:17:55;4.40;99.90
20827;DHT22;10574;52.508;13.236;2024-02-14T07:20:24;4.40;99.90
20827;DHT22;10574;52.508;13.236;2024-02-14T07:22:54;4.50;99.90
20827;DHT22;10574;52.508;13.236;2024-02-14T07:25:23;4.50;99.90
20827;DHT22;10574;52.508;13.236;2024-02-14T07:27:51;4.60;99.90
20827;DHT22;10574;52.508;13.236;2024-02-14T07:30:19;4.60;99.90
20827;DHT22;10574;52.508;13.236;2024-02-14T07:32:46;4.60;99.90
20827;DHT22;10574;52.508;13.236;2024-02-14T07:35:14;4.60;99.90
20827;DHT22;10574;52.508;13.236;2024-02-14T07:37:43;4.70;99.90
20827;DHT22;10574;52.508;13.236;2024-02-14T07:40:11;4.70;99.90
20827;DHT22;10574;52.508;13.236;2024-02-14T07:42:39;4.80;99.90
20827;DHT22;10574;52.508;13.236;2024-02-14T07:45:07;4.80;99.90
20827;DHT22;10574;52.508;13.236;2024-02-14T07:47:35;4.90;99.90
20827;DHT22;10574;52.508;13.236;2024-02-14T07:50:03;4.90;99.90
20827;DHT22;10574;52.508;13.236;2024-02-14T07:52:30;4.90;99.90
20827;DHT22;10574;52.508;13.236;2024-02-14T07:54:58;4.90;99.90
20827;DHT22;10574;52.508;13.236;2024-02-14T07:57:26;4.90;99.90
20827;DHT22;10574;52.508;13.236;2024-02-14T07:59:54;4.90;99.90
20827;DHT22;10574;52.508;13.236;2024-02-14T08:02:22;4.90;99.90
20827;DHT22;10574;52.508;13.236;2024-02-14T08:04:50;4.90;99.90
20827;DHT22;10574;52.508;13.236;2024-02-14T08:07:18;5.00;99.90
20827;DHT22;10574;52.508;13.236;2024-02-14T08:09:45;5.00;99.90
20827;DHT22;10574;52.508;13.236;2024-02-14T08:12:13;5.10;99.90
20827;DHT22;10574;52.508;13.236;2024-02-14T08:14:41;5.10;99.90
20827;DHT22;10574;52.508;13.236;2024-02-14T08:17:08;5.10;99.90
20827;DHT22;10574;52.508;13.236;2024-02-14T08:19:36;5.10;99.90
20827;DHT22;10574;52.508;13.236;2024-02-14T08:22:04;5.10;99.90
20827;DHT22;10574;52.508;13.236;2024-02-14T08:24:35;5.20;99.90
20827;DHT22;10574;52.508;13.236;2024-02-14T08:27:03;5.20;99.90
20827;DHT22;10574;52.508;13.236;2024-02-14T08:29:32;5.30;99.90
20827;DHT22;10574;52.508;13.236;2024-02-14T08:32:00;5.30;99.90
20827;DHT22;10574;52.508;13.236;2024-02-14T08:34:28;5.40;99.90
20827;DHT22;10574;52.508;13.236;2024-02-14T08:36:56;5.30;99.90
20827;DHT22;10574;52.508;13.236;2024-02-14T08:39:23;5.40;99.90
20827;DHT22;10574;52.508;13.236;2024-02-14T08:41:52;5.50;99.90
20827;DHT22;10574;52.508;13.236;2024-02-14T08:44:20;5.60;99.90
20827;DHT22;10574;52.508;13.236;2024-02-14T08:46:48;5.70;99.90
20827;DHT22;10574;52.508;13.236;2024-02-14T08:49:16;5.60;99.90
20827;DHT22;10574;52.508;13.236;2024-02-14T08:51:43;5.70;99.90
20827;DHT22;10574;52.508;13.236;2024-02-14T08:54:12;5.80;99.90
20827;DHT22;10574;52.508;13.236;2024-02-14T08:56:42;5.90;99.90
20827;DHT22;10574;52.508;13.236;2024-02-14T08:59:10;6.00;99.90
20827;DHT22;10574;52.508;13.236;2024-02-14T09:01:38;5.90;99.90
20827;DHT22;10574;52.508;13.236;2024-02-14T09:04:06;5.90;99.90
20827;DHT22;10574;52.508;13.236;2024-02-14T09:06:34;5.90;99.90
20827;DHT22;10574;52.508;13.236;2024-02-14T09:09:02;6.00;99.90
20827;DHT22;10574;52.508;13.236;2024-02-14T09:11:30;5.90;99.90
20827;DHT22;10574;52.508;13.236;2024-02-14T09:13:58;5.90;99.90
20827;DHT22;10574;52.508;13.236;2024-02-14T09:16:27;5.90;99.90
20827;DHT22;10574;52.508;13.236;2024-02-14T09:18:55;5.90;99.90
20827;DHT22;10574;52.508;13.236;2024-02-14T09:21:23;6.00;99.90
20827;DHT22;10574;52.508;13.236;2024-02-14T09:23:51;6.00;99.90
20827;DHT22;10574;52.508;13.236;2024-02-14T09:26:18;6.00;99.90
20827;DHT22;10574;52.508;13.236;2024-02-14T09:28:46;6.00;99.90
20827;DHT22;10574;52.508;13.236;2024-02-14T09:31:18;6.00;99.90
20827;DHT22;10574;52.508;13.236;2024-02-14T09:33:49;6.10;99.90
20827;DHT22;10574;52.508;13.236;2024-02-14T09:36:17;6.10;99.90
20827;DHT22;10574;52.508;13.236;2024-02-14T09:38:46;6.00;99.90
20827;DHT22;10574;52.508;13.236;2024-02-14T09:41:37;6.00;99.90
20827;DHT22;10574;52.508;13.236;2024-02-14T09:44:07;6.10;99.90
20827;DHT22;10574;52.508;13.236;2024-02-14T09:46:38;6.10;99.90
20827;DHT22;10574;52.508;13.236;2024-02-14T09:49:07;6.00;99.90
20827;DHT22;10574;52.508;13.236;2024-02-14T09:51:37;6.00;99.90
20827;DHT22;10574;52.508;13.236;2024-02-14T09:54:08;6.10;99.90
20827;DHT22;10574;52.508;13.236;2024-02-14T09:56:37;6.10;99.90
20827;DHT22;10574;52.508;13.236;2024-02-14T09:59:05;6.10;99.90
20827;DHT22;10574;52.508;13.236;2024-02-14T10:01:33;6.10;99.90
20827;DHT22;10574;52.508;13.236;2024-02-14T10:04:01;6.10;99.90
20827;DHT22;10574;52.508;13.236;2024-02-14T10:06:29;6.10;99.90
20827;DHT22;10574;52.508;13.236;2024-02-14T10:08:57;6.20;99.90
20827;DHT22;10574;52.508;13.236;2024-02-14T10:11:25;6.10;99.90
20827;DHT22;10574;52.508;13.236;2024-02-14T10:13:53;6.10;99.90
20827;DHT22;10574;52.508;13.236;2024-02-14T10:16:23;6.20;99.90
20827;DHT22;10574;52.508;13.236;2024-02-14T10:18:51;6.20;99.90
20827;DHT22;10574;52.508;13.236;2024-02-14T10:21:19;6.20;99.90
20827;DHT22;10574;52.508;13.236;2024-02-14T10:23:50;6.20;99.90
20827;DHT22;10574;52.508;13.236;2024-02-14T10:26:42;6.20;99.90
20827;DHT22;10574;52.508;13.236;2024-02-14T10:29:19;6.30;99.90
20827;DHT22;10574;52.508;13.236;2024-02-14T10:31:54;6.40;99.90
20827;DHT22;10574;52.508;13.236;2024-02-14T10:34:48;6.40;99.90
20827;DHT22;10574;52.508;13.236;2024-02-14T10:37:30;6.30;99.90
20827;DHT22;10574;52.508;13.236;2024-02-14T10:39:59;6.40;99.90
20827;DHT22;10574;52.508;13.236;2024-02-14T10:42:34;6.40;99.90
20827;DHT22;10574;52.508;13.236;2024-02-14T10:48:07;6.50;99.90
20827;DHT22;10574;52.508;13.236;2024-02-14T10:50:30;6.50;99.90
20827;DHT22;10574;52.508;13.236;2024-02-14T10:56:12;6.70;99.90
20827;DHT22;10574;52.508;13.236;2024-02-14T10:58:50;6.80;99.90
20827;DHT22;10574;52.508;13.236;2024-02-14T11:01:19;6.90;99.90
20827;DHT22;10574;52.508;13.236;2024-02-14T11:03:50;7.00;99.90
20827;DHT22;10574;52.508;13.236;2024-02-14T11:06:18;7.00;99.90
20827;DHT22;10574;52.508;13.236;2024-02-14T11:09:00;7.00;99.90
20827;DHT22;10574;52.508;13.236;2024-02-14T11:11:31;7.00;99.90
20827;DHT22;10574;52.508;13.236;2024-02-14T11:14:00;7.10;99.90
20827;DHT22;10574;52.508;13.236;2024-02-14T11:16:30;7.10;99.90
20827;DHT22;10574;52.508;13.236;2024-02-14T11:19:12;7.20;99.90
20827;DHT22;10574;52.508;13.236;2024-02-14T11:21:43;7.20;99.90
20827;DHT22;10574;52.508;13.236;2024-02-14T11:24:14;7.10;99.90
20827;DHT22;10574;52.508;13.236;2024-02-14T11:26:48;7.10;99.90
20827;DHT22;10574;52.508;13.236;2024-02-14T11:29:20;7.10;99.90
20827;DHT22;10574;52.508;13.236;2024-02-14T11:31:56;7.20;99.90
20827;DHT22;10574;52.508;13.236;2024-02-14T11:34:18;7.30;99.90
20827;DHT22;10574;52.508;13.236;2024-02-14T11:36:46;7.30;99.90
20827;DHT22;10574;52.508;13.236;2024-02-14T11:39:14;7.30;99.90
20827;DHT22;10574;52.508;13.236;2024-02-14T11:41:42;7.30;99.90
20827;DHT22;10574;52.508;13.236;2024-02-14T11:44:10;7.40;99.90
20827;DHT22;10574;52.508;13.236;2024-02-14T11:46:40;7.50;99.90
20827;DHT22;10574;52.508;13.236;2024-02-14T11:49:08;7.50;99.90
20827;DHT22;10574;52.508;13.236;2024-02-14T11:51:36;7.50;99.90
20827;DHT22;10574;52.508;13.236;2024-02-14T11:54:05;7.50;99.90
20827;DHT22;10574;52.508;13.236;2024-02-14T11:56:35;7.50;99.90
20827;DHT22;10574;52.508;13.236;2024-02-14T11:59:04;7.50;99.90
20827;DHT22;10574;52.508;13.236;2024-02-14T12:01:34;7.60;99.90
20827;DHT22;10574;52.508;13.236;2024-02-14T12:04:04;7.60;99.90
20827;DHT22;10574;52.508;13.236;2024-02-14T12:06:34;7.60;99.90
20827;DHT22;10574;52.508;13.236;2024-02-14T12:09:03;7.60;99.90
20827;DHT22;10574;52.508;13.236;2024-02-14T12:11:36;7.60;99.90
20827;DHT22;10574;52.508;13.236;2024-02-14T12:14:06;7.70;99.90
20827;DHT22;10574;52.508;13.236;2024-02-14T12:16:36;7.60;99.90
20827;DHT22;10574;52.508;13.236;2024-02-14T12:19:13;7.70;99.90
20827;DHT22;10574;52.508;13.236;2024-02-14T12:21:37;7.70;99.90
20827;DHT22;10574;52.508;13.236;2024-02-14T12:24:08;7.80;99.90
20827;DHT22;10574;52.508;13.236;2024-02-14T12:26:38;7.80;99.90
20827;DHT22;10574;52.508;13.236;2024-02-14T12:29:07;7.90;99.90
20827;DHT22;10574;52.508;13.236;2024-02-14T12:31:35;7.90;99.90
20827;DHT22;10574;52.508;13.236;2024-02-14T12:34:04;8.00;99.90
20827;DHT22;10574;52.508;13.236;2024-02-14T12:36:36;8.00;99.90
20827;DHT22;10574;52.508;13.236;2024-02-14T12:39:04;8.00;99.90
20827;DHT22;10574;52.508;13.236;2024-02-14T12:41:33;8.00;99.90
20827;DHT22;10574;52.508;13.236;2024-02-14T12:44:02;8.00;99.90
20827;DHT22;10574;52.508;13.236;2024-02-14T12:46:32;8.00;99.90
20827;DHT22;10574;52.508;13.236;2024-02-14T12:49:01;8.00;99.90
20827;DHT22;10574;52.508;13.236;2024-02-14T12:51:30;8.00;99.90
20827;DHT22;10574;52.508;13.236;2024-02-14T12:53:58;8.10;99.90
20827;DHT22;10574;52.508;13.236;2024-02-14T12:56:28;8.10;99.90
20827;DHT22;10574;52.508;13.236;2024-02-14T12:58:57;8.00;99.90
20827;DHT22;10574;52.508;13.236;2024-02-14T13:01:26;8.10;99.90
20827;DHT22;10574;52.508;13.236;2024-02-14T13:03:54;8.10;99.90
20827;DHT22;10574;52.508;13.236;2024-02-14T13:06:22;8.10;99.90
20827;DHT22;10574;52.508;13.236;2024-02-14T13:08:50;8.10;99.90
20827;DHT22;10574;52.508;13.236;2024-02-14T13:11:18;8.20;99.90
20827;DHT22;10574;52.508;13.236;2024-02-14T13:13:45;8.20;99.90
20827;DHT22;10574;52.508;13.236;2024-02-14T13:16:14;8.20;99.90
20827;DHT22;10574;52.508;13.236;2024-02-14T13:18:42;8.30;99.90
20827;DHT22;10574;52.508;13.236;2024-02-14T13:21:10;8.30;99.90
20827;DHT22;10574;52.508;13.236;2024-02-14T13:23:38;8.30;99.90
20827;DHT22;10574;52.508;13.236;2024-02-14T13:26:07;8.30;99.90
20827;DHT22;10574;52.508;13.236;2024-02-14T13:28:35;8.40;99.90
20827;DHT22;10574;52.508;13.236;2024-02-14T13:31:03;8.30;99.90
20827;DHT22;10574;52.508;13.236;2024-02-14T13:33:30;8.30;99.90
20827;DHT22;10574;52.508;13.236;2024-02-14T13:35:58;8.30;99.90
20827;DHT22;10574;52.508;13.236;2024-02-14T13:38:26;8.30;99.90
20827;DHT22;10574;52.508;13.236;2024-02-14T13:40:55;8.30;99.90
20827;DHT22;10574;52.508;13.236;2024-02-14T13:43:23;8.30;99.90
20827;DHT22;10574;52.508;13.236;2024-02-14T13:45:51;8.30;99.90
20827;DHT22;10574;52.508;13.236;2024-02-14T13:48:19;8.30;99.90
20827;DHT22;10574;52.508;13.236;2024-02-14T13:50:47;8.30;99.90
20827;DHT22;10574;52.508;13.236;2024-02-14T13:53:16;8.40;99.90
20827;DHT22;10574;52.508;13.236;2024-02-14T13:55:44;8.40;99.90
20827;DHT22;10574;52.508;13.236;2024-02-14T13:58:12;8.40;99.90
20827;DHT22;10574;52.508;13.236;2024-02-14T14:00:42;8.40;99.90
20827;DHT22;10574;52.508;13.236;2024-02-14T14:03:10;8.50;99.90
20827;DHT22;10574;52.508;13.236;2024-02-14T14:05:38;8.40;99.90
20827;DHT22;10574;52.508;13.236;2024-02-14T14:08:06;8.50;99.90
20827;DHT22;10574;52.508;13.236;2024-02-14T14:10:34;8.50;99.90
20827;DHT22;10574;52.508;13.236;2024-02-14T14:13:01;8.50;99.90
20827;DHT22;10574;52.508;13.236;2024-02-14T14:15:30;8.50;99.90
20827;DHT22;10574;52.508;13.236;2024-02-14T14:17:59;8.50;99.90
20827;DHT22;10574;52.508;13.236;2024-02-14T14:20:27;8.60;99.90
20827;DHT22;10574;52.508;13.236;2024-02-14T14:22:54;8.60;99.90
20827;DHT22;10574;52.508;13.236;2024-02-14T14:25:22;8.60;99.90
20827;DHT22;10574;52.508;13.236;2024-02-14T14:27:50;8.60;99.90
20827;DHT22;10574;52.508;13.236;2024-02-14T14:30:18;8.60;99.90
20827;DHT22;10574;52.508;13.236;2024-02-14T14:32:46;8.70;99.90
20827;DHT22;10574;52.508;13.236;2024-02-14T14:35:14;8.70;99.90
20827;DHT22;10574;52.508;13.236;2024-02-14T14:37:42;8.70;99.90
20827;DHT22;10574;52.508;13.236;2024-02-14T14:40:10;8.70;99.90
20827;DHT22;10574;52.508;13.236;2024-02-14T14:42:38;8.70;99.90
20827;DHT22;10574;52.508;13.236;2024-02-14T14:45:06;8.70;99.90
20827;DHT22;10574;52.508;13.236;2024-02-14T14:47:34;8.80;99.90
20827;DHT22;10574;52.508;13.236;2024-02-14T14:50:06;8.80;99.90
20827;DHT22;10574;52.508;13.236;2024-02-14T14:52:34;8.80;99.90
20827;DHT22;10574;52.508;13.236;2024-02-14T14:55:02;8.90;99.90
20827;DHT22;10574;52.508;13.236;2024-02-14T14:57:30;8.90;99.90
20827;DHT22;10574;52.508;13.236;2024-02-14T14:59:59;8.90;99.90
20827;DHT22;10574;52.508;13.236;2024-02-14T15:02:27;9.00;99.90
20827;DHT22;10574;52.508;13.236;2024-02-14T15:04:55;8.90;99.90
20827;DHT22;10574;52.508;13.236;2024-02-14T15:07:23;9.00;99.90
20827;DHT22;10574;52.508;13.236;2024-02-14T15:09:51;9.00;99.90
20827;DHT22;10574;52.508;13.236;2024-02-14T15:12:18;9.10;99.90
20827;DHT22;10574;52.508;13.236;2024-02-14T15:14:48;9.10;99.90
20827;DHT22;10574;52.508;13.236;2024-02-14T15:17:16;9.10;99.90
20827;DHT22;10574;52.508;13.236;2024-02-14T15:19:46;9.10;99.90
20827;DHT22;10574;52.508;13.236;2024-02-14T15:22:17;9.10;99.90
20827;DHT22;10574;52.508;13.236;2024-02-14T15:24:47;9.20;99.90
20827;DHT22;10574;52.508;13.236;2024-02-14T15:27:17;9.10;99.90
20827;DHT22;10574;52.508;13.236;2024-02-14T15:29:50;9.20;99.90
20827;DHT22;10574;52.508;13.236;2024-02-14T15:32:33;9.20;99.90
20827;DHT22;10574;52.508;13.236;2024-02-14T15:35:19;9.20;99.90
20827;DHT22;10574;52.508;13.236;2024-02-14T15:37:49;9.20;99.90
20827;DHT22;10574;52.508;13.236;2024-02-14T15:40:19;9.20;99.90
20827;DHT22;10574;52.508;13.236;2024-02-14T15:42:47;9.10;99.90
20827;DHT22;10574;52.508;13.236;2024-02-14T15:45:15;9.20;99.90